createdAt,value
2022-09-15T00:01:02.719Z,8.13
2022-09-15T00:03:30.101Z,7.93
2022-09-15T00:05:56.992Z,7.70
2022-09-15T00:08:24.262Z,8.30
2022-09-15T00:10:53.760Z,8.05
2022-09-15T00:13:21.795Z,9.20
2022-09-15T00:15:48.780Z,8.07
2022-09-15T00:18:15.924Z,8.65
2022-09-15T00:20:44.225Z,8.73
2022-09-15T00:23:12.631Z,8.63
2022-09-15T00:25:51.147Z,9.48
2022-09-15T00:28:19.844Z,9.05
2022-09-15T00:30:51.907Z,10.07
2022-09-15T00:33:20.445Z,7.93
2022-09-15T00:35:49.287Z,9.30
2022-09-15T00:38:17.545Z,9.07
2022-09-15T00:40:53.440Z,8.30
2022-09-15T00:43:41.579Z,8.55
2022-09-15T00:46:09.480Z,8.85
2022-09-15T00:48:39.915Z,8.10
2022-09-15T00:51:09.871Z,8.70
2022-09-15T00:53:37.600Z,7.63
2022-09-15T00:56:07.025Z,7.88
2022-09-15T00:58:38.560Z,7.70
2022-09-15T01:01:08.140Z,7.60
2022-09-15T01:03:36.665Z,7.60
2022-09-15T01:06:24.097Z,7.68
2022-09-15T01:09:21.016Z,8.02
2022-09-15T01:11:48.598Z,8.00
2022-09-15T01:14:15.549Z,7.80
2022-09-15T01:19:41.451Z,7.18
2022-09-15T01:22:32.688Z,7.47
2022-09-15T01:25:17.879Z,6.95
2022-09-15T01:28:01.835Z,7.65
2022-09-15T01:30:34.896Z,6.93
2022-09-15T01:33:23.213Z,7.50
2022-09-15T01:36:02.658Z,7.70
2022-09-15T01:38:38.576Z,7.03
2022-09-15T01:41:18.678Z,7.40
2022-09-15T01:44:10.166Z,7.00
2022-09-15T01:46:44.947Z,6.72
2022-09-15T01:49:15.720Z,7.45
2022-09-15T01:51:45.539Z,6.78
2022-09-15T01:54:14.812Z,7.28
2022-09-15T01:56:41.999Z,7.03
2022-09-15T01:59:10.144Z,6.18
2022-09-15T02:01:47.344Z,6.40
2022-09-15T02:04:21.709Z,6.45
2022-09-15T02:06:57.977Z,6.65
2022-09-15T02:09:32.567Z,6.28
2022-09-15T02:12:19.984Z,6.55
2022-09-15T02:14:56.901Z,6.65
2022-09-15T02:17:29.241Z,7.72
2022-09-15T02:20:05.483Z,6.10
2022-09-15T02:22:37.841Z,6.82
2022-09-15T02:25:12.932Z,7.13
2022-09-15T02:27:50.745Z,6.05
2022-09-15T02:30:19.766Z,6.45
2022-09-15T02:32:56.732Z,6.53
2022-09-15T02:35:26.105Z,5.93
2022-09-15T02:37:54.194Z,6.40
2022-09-15T02:40:21.966Z,6.53
2022-09-15T02:42:54.396Z,6.57
2022-09-15T02:45:21.854Z,6.18
2022-09-15T02:47:50.212Z,6.93
2022-09-15T02:50:18.245Z,7.68
2022-09-15T02:52:45.133Z,6.97
2022-09-15T02:55:12.751Z,6.90
2022-09-15T02:57:39.630Z,6.47
2022-09-15T03:00:13.126Z,6.93
2022-09-15T03:02:41.280Z,6.97
2022-09-15T03:05:09.792Z,7.18
2022-09-15T03:07:39.872Z,6.95
2022-09-15T03:10:08.394Z,7.90
2022-09-15T03:12:46.960Z,8.02
2022-09-15T03:15:16.254Z,7.07
2022-09-15T03:17:44.810Z,7.60
2022-09-15T03:20:14.920Z,7.30
2022-09-15T03:22:42.198Z,7.13
2022-09-15T03:25:09.741Z,7.55
2022-09-15T03:27:37.028Z,7.18
2022-09-15T03:30:06.328Z,7.45
2022-09-15T03:32:33.396Z,7.32
2022-09-15T03:35:00.378Z,7.60
2022-09-15T03:37:27.682Z,8.70
2022-09-15T03:39:54.721Z,7.53
2022-09-15T03:42:21.971Z,7.18
2022-09-15T03:44:48.854Z,7.38
2022-09-15T03:47:15.759Z,7.70
2022-09-15T03:49:42.762Z,7.13
2022-09-15T03:52:10.012Z,8.00
2022-09-15T03:54:36.886Z,7.50
2022-09-15T03:57:04.201Z,7.68
2022-09-15T03:59:31.099Z,7.53
2022-09-15T04:01:57.968Z,6.82
2022-09-15T04:04:24.931Z,7.07
2022-09-15T04:06:51.789Z,7.45
2022-09-15T04:09:20.407Z,6.82
2022-09-15T04:11:47.881Z,7.05
2022-09-15T04:14:14.990Z,6.40
2022-09-15T04:16:41.955Z,6.90
2022-09-15T04:19:08.973Z,6.45
2022-09-15T04:21:36.002Z,6.72
2022-09-15T04:24:04.866Z,6.80
2022-09-15T04:26:34.842Z,6.30
2022-09-15T04:29:04.471Z,6.07
2022-09-15T04:31:34.266Z,6.75
2022-09-15T04:34:01.713Z,6.97
2022-09-15T04:36:29.344Z,6.90
2022-09-15T04:38:58.190Z,6.95
2022-09-15T04:41:26.764Z,6.68
2022-09-15T04:43:54.224Z,7.65
2022-09-15T04:46:21.770Z,8.48
2022-09-15T04:48:49.877Z,9.20
2022-09-15T04:51:20.927Z,7.65
2022-09-15T04:53:50.835Z,7.97
2022-09-15T04:56:22.082Z,8.65
2022-09-15T04:59:03.183Z,8.35
2022-09-15T05:01:34.124Z,8.52
2022-09-15T05:04:03.995Z,8.57
2022-09-15T05:06:31.660Z,7.90
2022-09-15T05:08:58.873Z,8.73
2022-09-15T05:11:26.605Z,8.85
2022-09-15T05:13:53.992Z,8.65
2022-09-15T05:16:24.107Z,8.80
2022-09-15T05:18:53.625Z,8.77
2022-09-15T05:21:22.356Z,9.00
2022-09-15T05:23:50.367Z,8.85
2022-09-15T05:26:20.670Z,8.18
2022-09-15T05:28:47.726Z,8.85
2022-09-15T05:31:21.425Z,8.05
2022-09-15T05:33:49.922Z,8.32
2022-09-15T05:36:18.549Z,8.90
2022-09-15T05:38:45.451Z,8.57
2022-09-15T05:41:17.564Z,7.55
2022-09-15T05:43:46.131Z,7.97
2022-09-15T05:46:14.034Z,7.75
2022-09-15T05:48:40.960Z,7.95
2022-09-15T05:51:08.064Z,8.45
2022-09-15T05:53:35.764Z,7.28
2022-09-15T05:56:05.535Z,8.98
2022-09-15T05:58:33.091Z,7.70
2022-09-15T06:01:09.475Z,8.50
2022-09-15T06:03:36.561Z,7.70
2022-09-15T06:06:05.615Z,7.50
2022-09-15T06:08:34.914Z,7.53
2022-09-15T06:11:07.005Z,7.78
2022-09-15T06:13:34.101Z,7.50
2022-09-15T06:16:02.761Z,7.55
2022-09-15T06:18:29.715Z,8.20
2022-09-15T06:20:56.596Z,7.97
2022-09-15T06:23:23.563Z,7.95
2022-09-15T06:25:50.388Z,6.88
2022-09-15T06:28:17.463Z,8.10
2022-09-15T06:30:49.377Z,7.40
2022-09-15T06:33:16.505Z,7.55
2022-09-15T06:35:43.421Z,5.97
2022-09-15T06:38:10.319Z,7.45
2022-09-15T06:40:37.464Z,6.63
2022-09-15T06:43:04.471Z,6.93
2022-09-15T06:45:31.380Z,6.68
2022-09-15T06:48:23.002Z,7.07
2022-09-15T06:50:45.552Z,7.05
2022-09-15T06:53:12.409Z,6.50
2022-09-15T06:55:39.585Z,6.18
2022-09-15T06:58:06.428Z,6.95
2022-09-15T07:00:33.318Z,6.22
2022-09-15T07:03:00.232Z,7.40
2022-09-15T07:05:27.530Z,6.63
2022-09-15T07:07:54.387Z,7.13
2022-09-15T07:10:21.290Z,6.57
2022-09-15T07:12:48.401Z,6.85
2022-09-15T07:15:15.421Z,7.10
2022-09-15T07:17:42.395Z,6.78
2022-09-15T07:20:09.809Z,6.57
2022-09-15T07:22:36.795Z,6.75
2022-09-15T07:25:04.187Z,7.70
2022-09-15T07:27:31.949Z,7.05
2022-09-15T07:29:59.455Z,7.30
2022-09-15T07:32:26.548Z,7.07
2022-09-15T07:34:56.553Z,6.88
2022-09-15T07:37:25.181Z,7.03
2022-09-15T07:39:52.439Z,7.03
2022-09-15T07:42:19.363Z,7.97
2022-09-15T07:44:46.411Z,7.32
2022-09-15T07:47:13.240Z,8.15
2022-09-15T07:49:40.546Z,7.47
2022-09-15T07:52:07.515Z,7.85
2022-09-15T07:54:34.544Z,7.13
2022-09-15T07:57:01.703Z,6.72
2022-09-15T07:59:28.628Z,7.93
2022-09-15T08:01:55.446Z,7.07
2022-09-15T08:04:22.363Z,7.18
2022-09-15T08:06:49.225Z,7.88
2022-09-15T08:09:17.734Z,7.25
2022-09-15T08:11:44.700Z,6.22
2022-09-15T08:14:11.556Z,6.15
2022-09-15T08:16:38.640Z,7.63
2022-09-15T08:19:05.597Z,7.20
2022-09-15T08:21:32.488Z,7.13
2022-09-15T08:24:01.396Z,6.78
2022-09-15T08:26:31.660Z,6.65
2022-09-15T08:28:59.271Z,6.80
2022-09-15T08:31:26.584Z,5.78
2022-09-15T08:33:55.132Z,6.70
2022-09-15T08:36:24.507Z,7.38
2022-09-15T08:38:51.473Z,6.57
2022-09-15T08:41:41.462Z,6.75
2022-09-15T08:44:52.632Z,6.85
2022-09-15T08:47:23.073Z,6.07
2022-09-15T08:49:55.854Z,6.28
2022-09-15T08:52:32.550Z,6.68
2022-09-15T08:55:04.718Z,6.55
2022-09-15T08:57:31.715Z,6.80
2022-09-15T08:59:59.695Z,6.15
2022-09-15T09:02:46.659Z,6.40
2022-09-15T09:05:43.005Z,7.47
2022-09-15T09:08:39.629Z,6.22
2022-09-15T09:11:32.528Z,6.53
2022-09-15T09:14:27.812Z,6.15
2022-09-15T09:17:25.869Z,6.70
2022-09-15T09:20:31.092Z,6.63
2022-09-15T09:23:01.159Z,6.15
2022-09-15T09:25:28.573Z,6.85
2022-09-15T09:27:58.328Z,7.38
2022-09-15T09:30:29.806Z,6.25
2022-09-15T09:33:24.071Z,6.30
2022-09-15T09:35:53.134Z,5.57
2022-09-15T09:38:28.668Z,6.03
2022-09-15T09:40:59.973Z,6.25
2022-09-15T09:43:30.831Z,6.00
2022-09-15T09:45:58.148Z,6.25
2022-09-15T09:48:27.658Z,5.65
2022-09-15T09:50:55.405Z,5.60
2022-09-15T09:53:28.683Z,6.03
2022-09-15T09:56:18.311Z,5.88
2022-09-15T09:58:45.837Z,5.60
2022-09-15T10:01:25.022Z,5.05
2022-09-15T10:04:19.234Z,5.03
2022-09-15T10:06:46.813Z,4.75
2022-09-15T10:09:17.991Z,5.20
2022-09-15T10:11:54.691Z,4.93
2022-09-15T10:14:38.533Z,3.83
2022-09-15T10:17:17.785Z,3.88
2022-09-15T10:19:47.406Z,4.30
2022-09-15T10:22:33.601Z,3.60
2022-09-15T10:25:02.559Z,3.90
2022-09-15T10:27:34.010Z,3.78
2022-09-15T10:30:13.051Z,3.60
2022-09-15T10:32:41.633Z,3.53
2022-09-15T10:35:20.220Z,3.08
2022-09-15T10:37:56.367Z,3.60
2022-09-15T10:40:59.138Z,3.00
2022-09-15T10:43:56.052Z,2.90
2022-09-15T10:46:46.657Z,2.67
2022-09-15T10:49:31.644Z,2.67
2022-09-15T10:52:10.385Z,2.80
2022-09-15T10:55:37.012Z,2.40
2022-09-15T10:58:28.025Z,2.15
2022-09-15T11:01:15.838Z,2.15
2022-09-15T11:04:14.831Z,2.50
2022-09-15T11:07:02.481Z,2.25
2022-09-15T11:09:37.985Z,1.73
2022-09-15T11:12:29.298Z,2.22
2022-09-15T11:15:17.340Z,2.50
2022-09-15T11:17:52.942Z,2.00
2022-09-15T11:20:48.454Z,1.90
2022-09-15T11:23:37.733Z,2.38
2022-09-15T11:26:13.932Z,2.22
2022-09-15T11:28:58.358Z,2.25
2022-09-15T11:31:32.127Z,2.05
2022-09-15T11:34:04.530Z,1.75
2022-09-15T11:36:45.068Z,2.28
2022-09-15T11:39:28.127Z,2.20
2022-09-15T11:42:04.743Z,2.03
2022-09-15T11:44:38.126Z,1.73
2022-09-15T11:47:05.044Z,1.85
2022-09-15T11:49:40.673Z,1.90
2022-09-15T11:52:24.781Z,1.90
2022-09-15T11:55:17.659Z,1.60
2022-09-15T11:58:23.811Z,1.50
2022-09-15T12:00:55.587Z,1.75
2022-09-15T12:03:36.212Z,1.60
2022-09-15T12:06:20.644Z,1.65
2022-09-15T12:08:55.567Z,1.45
2022-09-15T12:11:26.482Z,1.35
2022-09-15T12:13:55.275Z,1.63
2022-09-15T12:16:22.891Z,1.40
2022-09-15T12:19:05.507Z,1.55
2022-09-15T12:21:35.871Z,1.23
2022-09-15T12:24:20.641Z,1.38
2022-09-15T12:26:48.759Z,1.25
2022-09-15T12:29:27.547Z,1.02
2022-09-15T12:32:24.771Z,1.27
2022-09-15T12:35:17.712Z,1.23
2022-09-15T12:37:58.898Z,1.02
2022-09-15T12:40:35.890Z,1.58
2022-09-15T12:43:23.588Z,1.30
2022-09-15T12:46:01.883Z,1.38
2022-09-15T12:48:32.017Z,1.15
2022-09-15T12:51:10.862Z,1.15
2022-09-15T12:53:50.668Z,1.20
2022-09-15T12:56:26.871Z,1.33
2022-09-15T12:58:54.174Z,1.10
2022-09-15T13:01:24.513Z,1.27
2022-09-15T13:04:00.588Z,1.08
2022-09-15T13:06:29.078Z,1.33
2022-09-15T13:09:26.102Z,1.42
2022-09-15T13:11:54.639Z,1.10
2022-09-15T13:14:35.682Z,1.50
2022-09-15T13:17:19.494Z,1.00
2022-09-15T13:19:50.580Z,1.05
2022-09-15T13:22:30.320Z,0.93
2022-09-15T13:25:06.529Z,0.90
2022-09-15T13:27:38.374Z,1.10
2022-09-15T13:30:21.231Z,1.08
2022-09-15T13:33:12.156Z,1.05
2022-09-15T13:35:52.526Z,1.15
2022-09-15T13:38:52.738Z,0.90
2022-09-15T13:41:34.736Z,1.52
2022-09-15T13:44:13.610Z,1.15
2022-09-15T13:47:09.696Z,1.10
2022-09-15T13:49:53.900Z,1.35
2022-09-15T13:52:22.523Z,1.17
2022-09-15T13:55:14.369Z,1.00
2022-09-15T14:00:49.159Z,1.15
2022-09-15T14:03:23.904Z,1.10
2022-09-15T14:05:51.087Z,1.30
2022-09-15T14:08:24.184Z,1.30
2022-09-15T14:10:55.665Z,1.20
2022-09-15T14:13:24.629Z,1.10
2022-09-15T14:16:03.687Z,1.08
2022-09-15T14:18:41.001Z,1.08
2022-09-15T14:21:17.785Z,1.10
2022-09-15T14:23:49.961Z,1.20
2022-09-15T14:26:20.458Z,1.25
2022-09-15T14:28:57.176Z,1.00
2022-09-15T14:31:40.319Z,0.98
2022-09-15T14:34:20.014Z,1.30
2022-09-15T14:36:54.128Z,1.38
2022-09-15T14:39:23.655Z,1.05
2022-09-15T14:41:51.145Z,1.00
2022-09-15T14:47:28.062Z,1.10
2022-09-15T14:50:13.940Z,1.10
2022-09-15T14:52:50.390Z,1.02
2022-09-15T14:55:35.880Z,1.25
2022-09-15T14:58:15.024Z,1.02
2022-09-15T15:00:54.995Z,0.77
2022-09-15T15:03:42.023Z,1.10
2022-09-15T15:06:30.446Z,1.00
2022-09-15T15:09:00.935Z,1.00
2022-09-15T15:11:29.168Z,1.05
2022-09-15T15:13:57.087Z,0.80
2022-09-15T15:16:30.752Z,1.73
2022-09-15T15:18:58.742Z,1.50
2022-09-15T15:21:40.967Z,1.70
2022-09-15T15:24:13.885Z,1.20
2022-09-15T15:26:43.607Z,1.23
2022-09-15T15:29:38.380Z,1.08
2022-09-15T15:32:13.412Z,1.10
2022-09-15T15:34:47.304Z,1.10
2022-09-15T15:37:25.368Z,1.13
2022-09-15T15:39:53.581Z,1.40
2022-09-15T15:42:20.873Z,1.30
2022-09-15T15:45:21.854Z,2.58
2022-09-15T15:47:48.811Z,1.98
2022-09-15T15:50:20.790Z,2.67
2022-09-15T15:52:49.371Z,1.50
2022-09-15T15:55:22.052Z,2.00
2022-09-15T15:57:54.276Z,2.00
2022-09-15T16:00:30.477Z,1.40
2022-09-15T16:02:57.880Z,1.33
2022-09-15T16:05:29.940Z,1.48
2022-09-15T16:08:00.457Z,1.50
2022-09-15T16:10:32.735Z,1.60
2022-09-15T16:12:59.750Z,1.90
2022-09-15T16:15:27.208Z,1.70
2022-09-15T16:17:54.252Z,2.70
2022-09-15T16:20:24.823Z,2.58
2022-09-15T16:22:52.194Z,1.50
2022-09-15T16:25:35.265Z,1.42
2022-09-15T16:28:03.392Z,1.38
2022-09-15T16:30:30.785Z,1.55
2022-09-15T16:32:58.149Z,2.35
2022-09-15T16:35:34.488Z,1.70
2022-09-15T16:38:01.427Z,1.58
2022-09-15T16:40:28.652Z,1.75
2022-09-15T16:42:55.792Z,2.17
2022-09-15T16:45:40.561Z,1.77
2022-09-15T16:48:09.338Z,2.20
2022-09-15T16:50:39.837Z,1.50
2022-09-15T16:53:21.398Z,2.42
2022-09-15T16:55:58.706Z,2.42
2022-09-15T16:58:25.616Z,1.75
2022-09-15T17:00:53.144Z,2.08
2022-09-15T17:03:24.555Z,1.88
2022-09-15T17:05:53.890Z,2.00
2022-09-15T17:08:23.480Z,2.38
2022-09-15T17:10:52.946Z,2.03
2022-09-15T17:13:25.101Z,2.22
2022-09-15T17:15:55.094Z,1.90
2022-09-15T17:18:23.706Z,3.70
2022-09-15T17:20:51.534Z,1.90
2022-09-15T17:23:21.198Z,2.03
2022-09-15T17:25:53.783Z,1.80
2022-09-15T17:28:22.842Z,1.90
2022-09-15T17:30:52.101Z,1.90
2022-09-15T17:33:20.981Z,1.85
2022-09-15T17:35:48.378Z,2.20
2022-09-15T17:38:16.212Z,2.20
2022-09-15T17:40:43.123Z,2.75
2022-09-15T17:43:18.657Z,1.95
2022-09-15T17:45:46.699Z,1.88
2022-09-15T17:48:13.743Z,1.85
2022-09-15T17:50:41.906Z,1.90
2022-09-15T17:53:18.082Z,1.48
2022-09-15T17:55:44.994Z,1.80
2022-09-15T17:58:12.255Z,1.80
2022-09-15T18:00:42.479Z,1.75
2022-09-15T18:03:18.279Z,1.70
2022-09-15T18:05:45.307Z,1.50
2022-09-15T18:08:12.423Z,1.90
2022-09-15T18:10:39.306Z,1.50
2022-09-15T18:13:07.444Z,1.20
2022-09-15T18:15:35.422Z,2.00
2022-09-15T18:18:08.556Z,1.48
2022-09-15T18:20:38.453Z,1.30
2022-09-15T18:23:05.355Z,1.75
2022-09-15T18:25:36.498Z,1.30
2022-09-15T18:28:04.373Z,1.40
2022-09-15T18:30:33.733Z,1.40
2022-09-15T18:33:00.726Z,1.35
2022-09-15T18:35:27.693Z,1.35
2022-09-15T18:37:57.259Z,1.27
2022-09-15T18:40:25.526Z,1.80
2022-09-15T18:42:52.625Z,1.13
2022-09-15T18:45:20.572Z,1.20
2022-09-15T18:47:49.168Z,1.60
2022-09-15T18:50:17.554Z,1.48
2022-09-15T18:52:44.883Z,1.13
2022-09-15T18:55:16.051Z,1.33
2022-09-15T18:57:43.837Z,1.33
2022-09-15T19:00:17.348Z,1.13
2022-09-15T19:02:44.643Z,1.58
2022-09-15T19:05:12.449Z,1.40
2022-09-15T19:07:39.574Z,1.52
2022-09-15T19:10:07.933Z,1.40
2022-09-15T19:12:36.469Z,1.80
2022-09-15T19:15:10.883Z,1.55
2022-09-15T19:17:39.380Z,1.75
2022-09-15T19:20:10.107Z,1.10
2022-09-15T19:22:37.674Z,1.77
2022-09-15T19:25:06.046Z,2.00
2022-09-15T19:27:33.473Z,2.00
2022-09-15T19:30:00.969Z,2.08
2022-09-15T19:32:27.859Z,1.60
2022-09-15T19:34:54.807Z,1.88
2022-09-15T19:37:22.596Z,2.13
2022-09-15T19:39:50.121Z,2.22
2022-09-15T19:42:17.253Z,1.52
2022-09-15T19:44:44.760Z,1.33
2022-09-15T19:47:12.146Z,1.85
2022-09-15T19:49:39.029Z,1.40
2022-09-15T19:52:06.848Z,1.55
2022-09-15T19:54:34.682Z,1.70
2022-09-15T19:57:02.113Z,1.48
2022-09-15T19:59:31.683Z,1.75
2022-09-15T20:01:59.736Z,1.50
2022-09-15T20:07:12.631Z,1.92
2022-09-15T20:09:39.411Z,1.48
2022-09-15T20:12:06.568Z,1.70
2022-09-15T20:14:33.581Z,1.33
2022-09-15T20:17:01.426Z,1.52
2022-09-15T20:19:29.522Z,1.60
2022-09-15T20:21:56.655Z,2.00
2022-09-15T20:24:24.607Z,1.90
2022-09-15T20:26:51.991Z,1.48
2022-09-15T20:29:20.280Z,1.45
2022-09-15T20:31:47.717Z,1.70
2022-09-15T20:34:17.179Z,2.13
2022-09-15T20:36:44.605Z,1.55
2022-09-15T20:39:14.593Z,1.38
2022-09-15T20:41:45.160Z,1.80
2022-09-15T20:44:12.300Z,1.17
2022-09-15T20:46:39.523Z,1.40
2022-09-15T20:49:06.919Z,1.45
2022-09-15T20:51:34.117Z,1.50
2022-09-15T20:54:03.630Z,1.77
2022-09-15T20:56:32.584Z,1.65
2022-09-15T20:59:00.753Z,1.80
2022-09-15T21:01:31.860Z,1.50
2022-09-15T21:03:59.027Z,1.70
2022-09-15T21:06:27.845Z,1.52
2022-09-15T21:08:56.806Z,1.50
2022-09-15T21:11:26.536Z,1.30
2022-09-15T21:13:56.105Z,1.50
2022-09-15T21:16:26.155Z,1.40
2022-09-15T21:18:53.586Z,1.58
2022-09-15T21:21:25.271Z,1.38
2022-09-15T21:23:54.997Z,1.58
2022-09-15T21:26:23.121Z,1.10
2022-09-15T21:28:50.935Z,1.80
2022-09-15T21:31:20.211Z,1.60
2022-09-15T21:33:48.293Z,2.08
2022-09-15T21:36:18.009Z,1.42
2022-09-15T21:38:45.300Z,1.50
2022-09-15T21:41:15.694Z,1.67
2022-09-15T21:43:44.642Z,1.70
2022-09-15T21:46:13.873Z,1.50
2022-09-15T21:48:40.805Z,1.80
2022-09-15T21:51:09.005Z,1.40
2022-09-15T21:53:37.056Z,1.90
2022-09-15T21:56:06.572Z,1.55
2022-09-15T21:58:41.743Z,1.60
2022-09-15T22:01:24.051Z,1.30
2022-09-15T22:03:53.438Z,1.42
2022-09-15T22:06:22.429Z,1.70
2022-09-15T22:08:49.369Z,1.63
2022-09-15T22:11:16.353Z,1.50
2022-09-15T22:13:44.693Z,1.58
2022-09-15T22:16:17.667Z,1.40
2022-09-15T22:18:45.379Z,1.70
2022-09-15T22:21:17.515Z,1.42
2022-09-15T22:23:45.796Z,1.60
2022-09-15T22:26:16.323Z,1.67
2022-09-15T22:28:43.954Z,1.60
2022-09-15T22:31:15.315Z,1.80
2022-09-15T22:33:43.011Z,1.80
2022-09-15T22:36:11.786Z,1.48
2022-09-15T22:38:39.431Z,1.80
2022-09-15T22:41:09.221Z,2.10
2022-09-15T22:43:36.958Z,1.67
2022-09-15T22:46:05.095Z,1.65
2022-09-15T22:48:32.372Z,1.67
2022-09-15T22:50:59.855Z,1.50
2022-09-15T22:53:27.448Z,1.10
2022-09-15T22:56:08.665Z,1.38
2022-09-15T22:58:36.953Z,1.77
2022-09-15T23:01:09.777Z,1.60
2022-09-15T23:03:37.850Z,1.45
2022-09-15T23:06:05.627Z,1.58
2022-09-15T23:08:33.382Z,1.40
2022-09-15T23:11:12.080Z,1.88
2022-09-15T23:13:39.649Z,1.92
2022-09-15T23:16:09.324Z,1.73
2022-09-15T23:18:36.664Z,1.38
2022-09-15T23:21:07.414Z,1.75
2022-09-15T23:23:36.123Z,1.85
2022-09-15T23:26:04.747Z,1.70
2022-09-15T23:28:32.135Z,1.45
2022-09-15T23:30:59.709Z,1.73
2022-09-15T23:33:31.296Z,1.48
2022-09-15T23:36:06.973Z,1.83
2022-09-15T23:38:38.013Z,1.85
2022-09-15T23:41:05.483Z,1.33
2022-09-15T23:43:33.281Z,1.58
2022-09-15T23:46:01.040Z,1.52
2022-09-15T23:48:28.345Z,1.48
2022-09-15T23:50:55.361Z,1.38
2022-09-15T23:53:22.276Z,1.77
2022-09-15T23:55:49.139Z,1.55
2022-09-15T23:58:16.675Z,1.52
